Terminal Aerodrome Forecast
Issued by NWS

Home | Current Version | Previous Version | Text Only | Print | Product List | Glossary On
Versions: 1 2 3 4 5 6 7 8 9 10 11 12 13
000
FTUS45 KVEF 160500
TAFBIH
TAF
KBIH 160521Z 1606/1706 33006KT P6SM FEW200
     FM161900 17010KT P6SM SCT120
     FM162100 17014G20KT P6SM SCT120
     FM170400 16008KT P6SM SCT120=

USA.gov is the U.S. government's official web portal to all federal, state and local government web resources and services.